createdAt,value
2023-03-11T00:00:31.084Z,3.42
2023-03-11T00:03:01.780Z,3.78
2023-03-11T00:05:31.289Z,3.17
2023-03-11T00:07:57.925Z,4.68
2023-03-11T00:10:30.237Z,2.88
2023-03-11T00:12:57.822Z,3.72
2023-03-11T00:15:24.456Z,3.17
2023-03-11T00:17:51.316Z,3.58
2023-03-11T00:20:24.794Z,3.47
2023-03-11T00:22:51.341Z,3.45
2023-03-11T00:25:19.125Z,3.50
2023-03-11T00:27:45.882Z,2.60
2023-03-11T00:30:13.763Z,3.63
2023-03-11T00:32:40.901Z,2.42
2023-03-11T00:35:08.979Z,3.65
2023-03-11T00:37:35.454Z,2.90
2023-03-11T00:40:02.018Z,3.15
2023-03-11T00:42:28.549Z,3.78
2023-03-11T00:44:55.018Z,2.60
2023-03-11T00:47:21.875Z,2.45
2023-03-11T00:49:48.321Z,3.28
2023-03-11T00:52:14.831Z,3.47
2023-03-11T00:54:41.326Z,2.47
2023-03-11T00:57:07.773Z,4.03
2023-03-11T00:59:35.395Z,3.55
2023-03-11T01:02:01.831Z,3.03
2023-03-11T01:04:28.390Z,4.10
2023-03-11T01:06:55.016Z,3.38
2023-03-11T01:09:21.541Z,4.55
2023-03-11T01:11:48.028Z,2.67
2023-03-11T01:14:14.666Z,2.63
2023-03-11T01:16:41.276Z,1.98
2023-03-11T01:19:08.389Z,3.08
2023-03-11T01:21:34.852Z,2.33
2023-03-11T01:24:01.341Z,2.55
2023-03-11T01:26:28.912Z,2.55
2023-03-11T01:28:55.364Z,2.35
2023-03-11T01:31:21.904Z,2.05
2023-03-11T01:33:48.340Z,2.15
2023-03-11T01:36:14.872Z,2.17
2023-03-11T01:38:41.372Z,3.63
2023-03-11T01:41:11.215Z,1.90
2023-03-11T01:43:40.960Z,1.50
2023-03-11T01:46:16.076Z,2.13
2023-03-11T01:48:47.290Z,1.85
2023-03-11T01:51:14.829Z,1.60
2023-03-11T01:53:41.524Z,4.00
2023-03-11T01:56:08.191Z,1.65
2023-03-11T01:58:39.296Z,1.58
2023-03-11T02:01:06.828Z,2.10
2023-03-11T02:03:38.373Z,2.08
2023-03-11T02:06:09.148Z,1.83
2023-03-11T02:08:36.140Z,2.50
2023-03-11T02:11:05.723Z,0.90
2023-03-11T02:13:35.250Z,2.10
2023-03-11T02:16:03.584Z,1.38
2023-03-11T02:18:30.496Z,1.77
2023-03-11T02:21:17.698Z,2.22
2023-03-11T02:24:05.469Z,2.42
2023-03-11T02:26:52.828Z,2.08
2023-03-11T02:29:21.553Z,1.70
2023-03-11T02:31:48.861Z,2.00
2023-03-11T02:34:25.885Z,1.98
2023-03-11T02:36:52.534Z,1.55
2023-03-11T02:39:33.082Z,5.07
2023-03-11T02:42:02.314Z,2.25
2023-03-11T02:44:29.431Z,2.55
2023-03-11T02:46:56.343Z,1.60
2023-03-11T02:49:23.601Z,1.60
2023-03-11T02:51:50.553Z,3.15
2023-03-11T02:54:17.056Z,2.38
2023-03-11T02:56:43.651Z,2.30
2023-03-11T02:59:10.210Z,3.53
2023-03-11T03:01:36.743Z,1.83
2023-03-11T03:04:03.374Z,2.45
2023-03-11T03:06:30.042Z,2.35
2023-03-11T03:08:56.940Z,2.55
2023-03-11T03:11:23.415Z,2.20
2023-03-11T03:13:49.855Z,3.47
2023-03-11T03:16:19.379Z,1.35
2023-03-11T03:18:45.911Z,6.30
2023-03-11T03:21:12.334Z,1.55
2023-03-11T03:23:38.802Z,1.60
2023-03-11T03:26:06.229Z,1.10
2023-03-11T03:28:33.230Z,1.52
2023-03-11T03:31:10.292Z,1.55
2023-03-11T03:33:36.959Z,1.40
2023-03-11T03:36:09.123Z,1.90
2023-03-11T03:38:35.732Z,2.75
2023-03-11T03:41:02.222Z,2.20
2023-03-11T03:43:28.846Z,2.55
2023-03-11T03:46:05.543Z,1.95
2023-03-11T03:48:33.428Z,2.50
2023-03-11T03:51:08.631Z,3.08
2023-03-11T03:53:36.540Z,3.40
2023-03-11T03:56:07.696Z,2.60
2023-03-11T03:58:34.565Z,1.88
2023-03-11T04:01:04.983Z,1.98
2023-03-11T04:03:32.213Z,3.25
2023-03-11T04:06:16.771Z,4.35
2023-03-11T04:08:43.787Z,3.10
2023-03-11T04:11:10.348Z,1.90
2023-03-11T04:13:37.446Z,4.78
2023-03-11T04:16:07.338Z,3.83
2023-03-11T04:18:35.047Z,1.38
2023-03-11T04:21:06.583Z,2.53
2023-03-11T04:23:33.784Z,1.92
2023-03-11T04:26:01.323Z,2.33
2023-03-11T04:28:28.119Z,3.50
2023-03-11T04:30:54.697Z,2.90
2023-03-11T04:33:21.247Z,3.40
2023-03-11T04:35:47.765Z,3.22
2023-03-11T04:38:14.212Z,3.85
2023-03-11T04:40:41.035Z,3.40
2023-03-11T04:43:09.280Z,1.70
2023-03-11T04:45:38.915Z,4.25
2023-03-11T04:48:05.549Z,3.47
2023-03-11T04:50:32.799Z,6.10
2023-03-11T04:52:59.245Z,2.75
2023-03-11T04:55:25.918Z,2.15
2023-03-11T04:57:52.426Z,5.55
2023-03-11T05:00:24.419Z,2.60
2023-03-11T05:02:51.625Z,4.25
2023-03-11T05:05:21.426Z,2.80
2023-03-11T05:07:49.380Z,3.13
2023-03-11T05:10:22.748Z,4.05
2023-03-11T05:12:53.053Z,3.28
2023-03-11T05:15:20.194Z,4.28
2023-03-11T05:17:47.184Z,3.75
2023-03-11T05:20:15.788Z,3.30
2023-03-11T05:22:42.473Z,10.32
2023-03-11T05:25:09.432Z,2.88
2023-03-11T05:27:35.923Z,2.83
2023-03-11T05:30:02.447Z,3.53
2023-03-11T05:32:28.941Z,2.88
2023-03-11T05:34:55.448Z,4.30
2023-03-11T05:37:22.820Z,4.68
2023-03-11T05:39:49.430Z,6.15
2023-03-11T05:42:16.150Z,5.82
2023-03-11T05:44:42.729Z,4.72
2023-03-11T05:47:09.187Z,2.30
2023-03-11T05:49:35.696Z,7.15
2023-03-11T05:52:02.292Z,3.10
2023-03-11T05:54:29.294Z,2.78
2023-03-11T05:56:55.931Z,3.88
2023-03-11T05:59:23.332Z,2.45
2023-03-11T06:01:49.910Z,7.68
2023-03-11T06:04:16.922Z,8.95
2023-03-11T06:06:43.628Z,3.97
2023-03-11T06:09:14.453Z,3.30
2023-03-11T06:11:41.385Z,3.28
2023-03-11T06:14:10.987Z,6.47
2023-03-11T06:16:37.515Z,4.55
2023-03-11T06:19:04.105Z,4.38
2023-03-11T06:21:30.612Z,4.18
2023-03-11T06:23:57.210Z,5.07
2023-03-11T06:26:24.125Z,5.70
2023-03-11T06:28:52.196Z,3.38
2023-03-11T06:31:25.848Z,4.53
2023-03-11T06:36:20.872Z,3.35
2023-03-11T06:38:49.385Z,3.70
2023-03-11T06:41:16.484Z,3.70
2023-03-11T06:43:43.071Z,3.00
2023-03-11T06:46:12.334Z,5.97
2023-03-11T06:48:38.983Z,4.60
2023-03-11T06:51:06.655Z,2.55
2023-03-11T06:53:33.759Z,6.38
2023-03-11T06:56:06.143Z,3.55
2023-03-11T06:58:34.830Z,4.45
2023-03-11T07:01:03.794Z,6.10
2023-03-11T07:03:30.901Z,5.40
2023-03-11T07:05:58.709Z,4.28
2023-03-11T07:08:26.318Z,6.65
2023-03-11T07:11:01.961Z,5.53
2023-03-11T07:13:29.576Z,6.90
2023-03-11T07:16:07.460Z,2.80
2023-03-11T07:18:35.553Z,9.50
2023-03-11T07:21:03.711Z,7.05
2023-03-11T07:23:30.406Z,4.13
2023-03-11T07:25:57.038Z,5.72
2023-03-11T07:28:24.422Z,8.45
2023-03-11T07:30:51.831Z,10.63
2023-03-11T07:33:19.724Z,6.95
2023-03-11T07:35:47.170Z,7.25
2023-03-11T07:38:13.905Z,3.60
2023-03-11T07:40:40.665Z,3.53
2023-03-11T07:43:08.332Z,4.97
2023-03-11T07:45:35.479Z,5.43
2023-03-11T07:48:02.109Z,5.63
2023-03-11T07:50:28.609Z,4.82
2023-03-11T07:52:55.118Z,5.60
2023-03-11T07:55:21.846Z,5.30
2023-03-11T07:57:49.243Z,3.97
2023-03-11T08:00:16.476Z,4.93
2023-03-11T08:02:43.033Z,9.00
2023-03-11T08:05:10.314Z,2.75
2023-03-11T08:07:36.797Z,2.50
2023-03-11T08:10:04.408Z,5.25
2023-03-11T08:12:30.801Z,4.45
2023-03-11T08:14:57.350Z,3.08
2023-03-11T08:17:24.062Z,5.40
2023-03-11T08:19:53.751Z,3.58
2023-03-11T08:22:20.621Z,4.43
2023-03-11T08:24:50.998Z,3.70
2023-03-11T08:27:17.525Z,7.50
2023-03-11T08:29:44.121Z,4.88
2023-03-11T08:32:10.685Z,4.85
2023-03-11T08:34:39.284Z,3.08
2023-03-11T08:37:06.011Z,2.92
2023-03-11T08:39:32.473Z,3.40
2023-03-11T08:41:59.848Z,6.15
2023-03-11T08:44:29.193Z,6.13
2023-03-11T08:46:56.723Z,4.63
2023-03-11T08:49:23.810Z,2.95
2023-03-11T08:51:50.304Z,3.78
2023-03-11T08:54:16.747Z,5.78
2023-03-11T08:56:43.287Z,3.17
2023-03-11T08:59:09.751Z,5.43
2023-03-11T09:01:36.200Z,3.92
2023-03-11T09:04:02.697Z,3.20
2023-03-11T09:06:30.533Z,6.47
2023-03-11T09:08:57.523Z,4.93
2023-03-11T09:11:24.894Z,2.50
2023-03-11T09:13:58.198Z,3.80
2023-03-11T09:16:25.307Z,5.03
2023-03-11T09:18:52.294Z,8.98
2023-03-11T09:21:18.897Z,5.15
2023-03-11T09:23:46.237Z,5.38
2023-03-11T09:26:13.682Z,6.40
2023-03-11T09:28:41.663Z,4.40
2023-03-11T09:31:08.584Z,7.13
2023-03-11T09:33:39.966Z,7.07
2023-03-11T09:36:07.625Z,2.72
2023-03-11T09:38:34.567Z,5.97
2023-03-11T09:41:34.520Z,5.32
2023-03-11T09:44:08.812Z,6.32
2023-03-11T09:46:51.102Z,3.37
2023-03-11T09:49:48.540Z,9.65
2023-03-11T09:52:19.191Z,3.83
2023-03-11T09:54:50.943Z,7.88
2023-03-11T09:57:25.984Z,4.53
2023-03-11T09:59:52.648Z,8.07
2023-03-11T10:02:22.120Z,3.45
2023-03-11T10:05:13.325Z,6.47
2023-03-11T10:07:41.485Z,5.88
2023-03-11T10:10:13.544Z,4.78
2023-03-11T10:12:46.165Z,2.97
2023-03-11T10:15:39.380Z,4.45
2023-03-11T10:18:32.268Z,12.00
2023-03-11T10:21:00.820Z,5.82
2023-03-11T10:23:44.209Z,7.45
2023-03-11T10:26:22.528Z,4.53
2023-03-11T10:28:54.416Z,6.47
2023-03-11T10:31:33.736Z,7.53
2023-03-11T10:34:04.458Z,5.07
2023-03-11T10:36:50.418Z,3.65
2023-03-11T10:39:17.523Z,5.85
2023-03-11T10:41:47.226Z,10.02
2023-03-11T10:44:20.585Z,2.58
2023-03-11T10:46:47.583Z,6.43
2023-03-11T10:49:16.372Z,7.93
2023-03-11T10:51:47.595Z,7.45
2023-03-11T10:54:26.549Z,6.30
2023-03-11T10:57:19.645Z,6.28
2023-03-11T10:59:49.702Z,5.00
2023-03-11T11:02:28.138Z,3.70
2023-03-11T11:05:17.658Z,8.80
2023-03-11T11:07:46.039Z,10.32
2023-03-11T11:10:14.151Z,5.25
2023-03-11T11:13:02.639Z,4.85
2023-03-11T11:15:32.123Z,5.78
2023-03-11T11:18:15.099Z,6.68
2023-03-11T11:20:53.199Z,4.38
2023-03-11T11:24:01.639Z,3.00
2023-03-11T11:26:28.230Z,4.32
2023-03-11T11:29:08.981Z,4.50
2023-03-11T11:31:44.631Z,4.88
2023-03-11T11:34:30.934Z,4.85
2023-03-11T11:37:00.773Z,6.35
2023-03-11T11:39:30.806Z,7.43
2023-03-11T11:41:57.424Z,4.75
2023-03-11T11:44:33.977Z,4.85
2023-03-11T11:47:18.173Z,7.90
2023-03-11T11:49:54.196Z,7.28
2023-03-11T11:52:32.983Z,6.00
2023-03-11T11:55:05.451Z,6.05
2023-03-11T11:57:32.522Z,6.13
2023-03-11T11:59:59.671Z,4.05
2023-03-11T12:02:48.360Z,5.72
2023-03-11T12:05:24.300Z,3.70
2023-03-11T12:08:06.701Z,3.33
2023-03-11T12:10:55.104Z,30.92
2023-03-11T12:13:42.371Z,5.63
2023-03-11T12:16:17.913Z,4.78
2023-03-11T12:18:56.759Z,3.70
2023-03-11T12:21:43.181Z,2.95
2023-03-11T12:24:12.463Z,4.75
2023-03-11T12:26:42.442Z,5.22
2023-03-11T12:29:19.914Z,5.70
2023-03-11T12:31:47.761Z,2.60
2023-03-11T12:34:19.671Z,3.45
2023-03-11T12:36:48.512Z,5.80
2023-03-11T12:39:25.161Z,3.85
2023-03-11T12:42:10.566Z,3.92
2023-03-11T12:44:39.577Z,4.00
2023-03-11T12:47:12.313Z,4.13
2023-03-11T12:49:41.676Z,4.03
2023-03-11T12:52:14.077Z,6.57
2023-03-11T12:54:42.172Z,7.85
2023-03-11T12:57:20.797Z,5.15
2023-03-11T13:00:12.507Z,3.65
2023-03-11T13:02:58.068Z,5.15
2023-03-11T13:05:39.241Z,5.40
2023-03-11T13:08:22.104Z,4.20
2023-03-11T13:10:50.631Z,6.75
2023-03-11T13:13:42.552Z,2.88
2023-03-11T13:16:14.826Z,3.55
2023-03-11T13:18:46.586Z,4.68
2023-03-11T13:21:34.597Z,6.68
2023-03-11T13:24:19.596Z,4.63
2023-03-11T13:27:07.303Z,7.22
2023-03-11T13:29:55.908Z,4.13
2023-03-11T13:32:50.450Z,5.10
2023-03-11T13:35:36.116Z,3.83
2023-03-11T13:38:14.815Z,2.55
2023-03-11T13:40:44.519Z,12.68
2023-03-11T13:43:24.066Z,5.05
2023-03-11T13:46:05.531Z,2.10
2023-03-11T13:48:45.187Z,2.47
2023-03-11T13:51:27.863Z,6.22
2023-03-11T13:54:21.382Z,7.28
2023-03-11T13:56:59.911Z,3.40
2023-03-11T13:59:28.276Z,11.68
2023-03-11T14:01:59.603Z,8.90
2023-03-11T14:04:32.172Z,3.90
2023-03-11T14:06:59.624Z,7.85
2023-03-11T14:12:03.268Z,4.13
2023-03-11T14:14:40.079Z,1.88
2023-03-11T14:17:13.054Z,5.22
2023-03-11T14:19:39.564Z,3.00
2023-03-11T14:22:09.057Z,3.60
2023-03-11T14:24:36.558Z,9.60
2023-03-11T14:27:07.369Z,5.72
2023-03-11T14:29:39.195Z,2.53
2023-03-11T14:32:31.600Z,4.95
2023-03-11T14:34:58.306Z,7.00
2023-03-11T14:37:30.841Z,4.65
2023-03-11T14:39:57.301Z,10.18
2023-03-11T14:42:29.914Z,3.55
2023-03-11T14:45:03.502Z,3.25
2023-03-11T14:48:03.594Z,3.78
2023-03-11T14:50:35.164Z,6.45
2023-03-11T14:53:17.794Z,8.88
2023-03-11T14:55:53.634Z,6.70
2023-03-11T14:58:38.636Z,4.63
2023-03-11T15:01:18.898Z,3.15
2023-03-11T15:03:51.730Z,4.13
2023-03-11T15:06:22.502Z,3.23
2023-03-11T15:09:06.729Z,4.38
2023-03-11T15:11:48.777Z,3.38
2023-03-11T15:14:27.780Z,10.73
2023-03-11T15:17:32.988Z,3.78
2023-03-11T15:20:01.098Z,4.10
2023-03-11T15:22:40.026Z,4.80
2023-03-11T15:25:18.402Z,6.15
2023-03-11T15:27:45.675Z,3.50
2023-03-11T15:30:28.424Z,5.43
2023-03-11T15:32:58.720Z,2.55
2023-03-11T15:35:31.302Z,5.07
2023-03-11T15:38:23.555Z,3.83
2023-03-11T15:40:59.103Z,4.20
2023-03-11T15:43:30.786Z,8.80
2023-03-11T15:46:00.024Z,3.67
2023-03-11T15:48:29.346Z,9.43
2023-03-11T15:50:57.973Z,5.13
2023-03-11T15:53:27.253Z,4.90
2023-03-11T15:56:03.887Z,4.93
2023-03-11T15:58:33.337Z,4.50
2023-03-11T16:00:59.847Z,5.00
2023-03-11T16:03:26.338Z,4.60
2023-03-11T16:05:52.786Z,6.13
2023-03-11T16:08:19.372Z,4.30
2023-03-11T16:10:45.805Z,5.45
2023-03-11T16:13:14.015Z,3.90
2023-03-11T16:15:42.301Z,4.45
2023-03-11T16:18:10.753Z,2.95
2023-03-11T16:20:44.740Z,4.13
2023-03-11T16:23:18.973Z,3.78
2023-03-11T16:25:46.718Z,4.25
2023-03-11T16:28:14.987Z,6.88
2023-03-11T16:30:41.529Z,4.82
2023-03-11T16:33:16.275Z,8.57
2023-03-11T16:35:42.863Z,2.58
2023-03-11T16:38:09.950Z,5.38
2023-03-11T16:40:36.495Z,4.53
2023-03-11T16:43:04.318Z,5.45
2023-03-11T16:45:31.515Z,7.43
2023-03-11T16:47:58.151Z,5.88
2023-03-11T16:50:24.966Z,6.22
2023-03-11T16:52:53.162Z,32.15
2023-03-11T16:55:20.101Z,13.82
2023-03-11T16:57:46.798Z,8.68
2023-03-11T17:00:18.249Z,6.47
2023-03-11T17:02:45.112Z,6.55
2023-03-11T17:05:11.976Z,6.22
2023-03-11T17:07:39.887Z,9.98
2023-03-11T17:10:08.342Z,5.90
2023-03-11T17:12:36.042Z,9.60
2023-03-11T17:15:05.094Z,10.07
2023-03-11T17:17:31.587Z,6.05
2023-03-11T17:19:58.113Z,7.65
2023-03-11T17:22:24.674Z,8.52
2023-03-11T17:24:51.184Z,9.63
2023-03-11T17:27:32.152Z,9.38
2023-03-11T17:30:00.096Z,8.07
2023-03-11T17:32:26.596Z,9.63
2023-03-11T17:34:53.086Z,10.93
2023-03-11T17:37:19.736Z,6.20
2023-03-11T17:39:49.305Z,12.20
2023-03-11T17:42:16.376Z,8.65
2023-03-11T17:44:51.389Z,13.40
2023-03-11T17:47:20.304Z,8.57
2023-03-11T17:49:47.946Z,14.48
2023-03-11T17:52:14.539Z,6.55
2023-03-11T17:54:40.977Z,12.45
2023-03-11T17:57:07.528Z,12.20
2023-03-11T17:59:34.272Z,11.95
2023-03-11T18:02:00.858Z,15.70
2023-03-11T18:04:27.549Z,15.88
2023-03-11T18:06:54.975Z,12.43
2023-03-11T18:09:21.453Z,15.00
2023-03-11T18:11:48.132Z,16.58
2023-03-11T18:14:14.597Z,12.68
2023-03-11T18:16:41.184Z,9.52
2023-03-11T18:19:07.744Z,13.70
2023-03-11T18:21:34.461Z,16.48
2023-03-11T18:24:01.283Z,9.80
2023-03-11T18:26:29.708Z,13.38
2023-03-11T18:28:57.553Z,9.20
2023-03-11T18:31:25.390Z,14.18
2023-03-11T18:33:55.501Z,15.55
2023-03-11T18:36:27.195Z,12.93
2023-03-11T18:38:55.121Z,12.38
2023-03-11T18:41:21.648Z,15.15
2023-03-11T18:43:57.125Z,16.35
2023-03-11T18:46:28.475Z,18.75
2023-03-11T18:49:00.402Z,10.07
2023-03-11T18:51:28.849Z,10.88
2023-03-11T18:53:55.318Z,16.15
2023-03-11T18:56:21.832Z,19.27
2023-03-11T18:58:48.467Z,18.02
2023-03-11T19:01:17.388Z,19.55
2023-03-11T19:03:48.428Z,16.13
2023-03-11T19:06:16.530Z,17.50
2023-03-11T19:08:43.612Z,21.60
2023-03-11T19:11:12.974Z,11.65
2023-03-11T19:13:47.156Z,15.65
2023-03-11T19:16:18.516Z,19.00
2023-03-11T19:18:48.700Z,17.80
2023-03-11T19:21:17.533Z,14.95
2023-03-11T19:23:44.819Z,20.65
2023-03-11T19:26:11.332Z,13.93
2023-03-11T19:28:37.918Z,17.83
2023-03-11T19:31:05.468Z,16.80
2023-03-11T19:33:32.592Z,15.50
2023-03-11T19:36:02.357Z,14.43
2023-03-11T19:38:29.676Z,14.90
2023-03-11T19:41:06.709Z,12.93
2023-03-11T19:43:35.552Z,14.93
2023-03-11T19:46:03.410Z,13.40
2023-03-11T19:48:30.173Z,12.50
2023-03-11T19:50:58.484Z,15.75
2023-03-11T19:53:26.052Z,28.77
2023-03-11T19:55:54.913Z,33.08
2023-03-11T19:58:24.472Z,28.55
2023-03-11T20:00:52.668Z,23.50
2023-03-11T20:03:21.667Z,12.35
2023-03-11T20:05:51.381Z,15.35
2023-03-11T20:08:20.159Z,12.38
2023-03-11T20:10:48.519Z,9.18
2023-03-11T20:13:17.478Z,12.23
2023-03-11T20:15:46.612Z,9.23
2023-03-11T20:18:13.143Z,12.48
2023-03-11T20:20:39.872Z,12.38
2023-03-11T20:23:07.605Z,27.60
2023-03-11T20:25:34.933Z,15.05
2023-03-11T20:28:01.834Z,21.55
2023-03-11T20:30:28.710Z,15.63
2023-03-11T20:32:55.771Z,10.93
2023-03-11T20:35:23.063Z,9.50
2023-03-11T20:37:50.082Z,14.05
2023-03-11T20:40:18.391Z,10.73
2023-03-11T20:42:47.520Z,9.15
2023-03-11T20:45:22.145Z,9.10
2023-03-11T20:47:50.732Z,13.43
2023-03-11T20:50:18.038Z,15.15
2023-03-11T20:52:44.711Z,10.32
2023-03-11T20:55:12.114Z,10.60
2023-03-11T20:57:39.785Z,10.98
2023-03-11T21:00:11.974Z,13.23
2023-03-11T21:02:40.152Z,13.32
2023-03-11T21:05:08.310Z,6.03
2023-03-11T21:07:34.860Z,9.35
2023-03-11T21:10:03.492Z,13.23
2023-03-11T21:12:31.292Z,9.82
2023-03-11T21:14:57.907Z,8.30
2023-03-11T21:17:24.364Z,10.73
2023-03-11T21:19:50.939Z,14.85
2023-03-11T21:22:17.586Z,10.43
2023-03-11T21:24:45.212Z,14.80
2023-03-11T21:27:11.835Z,11.10
2023-03-11T21:29:38.586Z,9.13
2023-03-11T21:32:05.905Z,11.35
2023-03-11T21:34:32.571Z,9.35
2023-03-11T21:37:03.840Z,13.15
2023-03-11T21:39:30.373Z,9.68
2023-03-11T21:41:57.268Z,12.82
2023-03-11T21:44:23.873Z,16.13
2023-03-11T21:46:50.433Z,17.67
2023-03-11T21:49:17.221Z,17.77
2023-03-11T21:51:43.828Z,16.77
2023-03-11T21:54:11.050Z,16.20
2023-03-11T21:56:37.768Z,16.35
2023-03-11T21:59:04.880Z,15.88
2023-03-11T22:01:32.239Z,13.95
2023-03-11T22:03:58.964Z,18.30
2023-03-11T22:06:25.601Z,15.77
2023-03-11T22:08:52.672Z,15.63
2023-03-11T22:11:20.467Z,14.40
2023-03-11T22:13:49.104Z,16.83
2023-03-11T22:16:16.164Z,14.10
2023-03-11T22:18:43.081Z,14.13
2023-03-11T22:21:10.818Z,14.95
2023-03-11T22:23:37.637Z,15.77
2023-03-11T22:26:04.228Z,17.60
2023-03-11T22:28:30.748Z,18.02
2023-03-11T22:30:57.273Z,14.15
2023-03-11T22:33:23.854Z,9.23
2023-03-11T22:35:53.010Z,17.17
2023-03-11T22:38:19.741Z,10.68
2023-03-11T22:40:46.615Z,12.32
2023-03-11T22:43:18.208Z,10.98
2023-03-11T22:45:45.691Z,10.63
2023-03-11T22:48:12.571Z,7.57
2023-03-11T22:50:45.235Z,10.38
2023-03-11T22:53:12.974Z,9.77
2023-03-11T22:55:43.758Z,7.30
2023-03-11T22:58:11.354Z,8.55
2023-03-11T23:00:38.810Z,13.63
2023-03-11T23:03:05.649Z,10.05
2023-03-11T23:05:34.933Z,8.80
2023-03-11T23:08:01.506Z,12.48
2023-03-11T23:10:28.038Z,8.80
2023-03-11T23:12:54.947Z,11.07
2023-03-11T23:15:21.517Z,10.75
2023-03-11T23:17:48.089Z,10.70
2023-03-11T23:20:16.194Z,11.75
2023-03-11T23:22:43.198Z,11.52
2023-03-11T23:25:15.256Z,10.40
2023-03-11T23:27:43.372Z,11.20
2023-03-11T23:30:12.892Z,9.63
2023-03-11T23:32:39.372Z,9.05
2023-03-11T23:35:06.366Z,10.25
2023-03-11T23:37:32.871Z,8.57
2023-03-11T23:40:00.210Z,9.93
2023-03-11T23:42:26.764Z,13.68
2023-03-11T23:44:53.872Z,18.92
2023-03-11T23:47:20.663Z,17.10
2023-03-11T23:49:47.709Z,14.13
2023-03-11T23:52:14.404Z,12.10
2023-03-11T23:54:40.968Z,8.35
2023-03-11T23:57:07.681Z,8.60
2023-03-11T23:59:34.220Z,12.70
